メインページ
METAR-TAF:

METAR-TAF

空港 :

Smithers, ブリティッシュコロンビア州, カナダ

緯度: 54-49N, 経度: 127-11W, 海抜: 523m

現時点の気象観測

当レポートは15分前の08:00(UTC)に作成
無風
気温 -2°C
湿度 93%
気圧 1023 hPa
視程: 14.5km
晴天

METAR: CYYD 190800Z AUTO 00000KT 9SM CLR M02/M03 A3022 RMK SLP256

時間: 01:15 (08:15 UTC)

予報

当レポートは7時間37分前の00:38(UTC)に作成
予報は19日の 01時(UTC)から 19日の 06時(UTC)まで有効
南/南西の風 5kt
視程: 10km
高度23000ftの千切れ雲あり

TAF: CYYD 190038Z 1901/1906 20005KT P6SM BKN230 RMK NXT FCST WILL BE ISSUED AT 191345Z

4,000以上の空港の気象観測と天気予報(METAR報とTAF報)

利用可能な観測所は地図上に黄色い丸と赤い丸で示す。

丸の上にカーソルを重ねると観測所名を参照できる。

次にクリックすると気象観測と天気予報を参照できる。

マップの切り替え:黒色「×」印の緑ボタンをクリックして拡大、「-」印の緑ボタンをクリックして縮小、緑色の三角印をクリックして隣りの地図に切り替え


METAR-TAF: